createdAt,value
2022-11-01T00:02:15.324Z,132.65
2022-11-01T00:04:42.776Z,186.27
2022-11-01T00:07:10.278Z,152.40
2022-11-01T00:09:37.450Z,254.45
2022-11-01T00:12:05.131Z,400.77
2022-11-01T00:14:32.458Z,384.92
2022-11-01T00:16:59.730Z,299.48
2022-11-01T00:19:26.969Z,190.85
2022-11-01T00:21:54.237Z,147.93
2022-11-01T00:24:21.544Z,142.60
2022-11-01T00:29:20.935Z,406.27
2022-11-01T00:31:48.177Z,313.08
2022-11-01T00:34:16.940Z,354.98
2022-11-01T00:36:44.342Z,178.32
2022-11-01T00:39:16.008Z,240.18
2022-11-01T00:41:43.344Z,331.70
2022-11-01T00:44:10.640Z,340.77
2022-11-01T00:46:37.909Z,362.23
2022-11-01T00:49:05.283Z,268.50
2022-11-01T00:51:32.577Z,474.27
2022-11-01T00:53:59.765Z,135.80
2022-11-01T00:56:27.016Z,481.63
2022-11-01T00:58:54.289Z,209.43
2022-11-01T01:01:21.617Z,446.50
2022-11-01T01:03:49.126Z,253.18
2022-11-01T01:06:16.349Z,441.85
2022-11-01T01:08:43.620Z,105.57
2022-11-01T01:11:10.875Z,253.95
2022-11-01T01:13:38.141Z,392.60
2022-11-01T01:16:12.942Z,519.03
2022-11-01T01:18:40.528Z,330.10
2022-11-01T01:21:08.026Z,346.80
2022-11-01T01:23:35.960Z,111.07
2022-11-01T01:26:11.309Z,350.17
2022-11-01T01:28:43.513Z,504.88
2022-11-01T01:31:14.031Z,270.48
2022-11-01T01:33:41.534Z,178.07
2022-11-01T01:36:08.908Z,116.07
2022-11-01T01:38:39.117Z,129.75
2022-11-01T01:41:32.758Z,137.70
2022-11-01T01:44:00.034Z,339.67
2022-11-01T01:46:27.194Z,202.40
2022-11-01T01:48:59.070Z,172.15
2022-11-01T01:51:28.489Z,255.98
2022-11-01T01:53:58.370Z,237.43
2022-11-01T01:56:34.498Z,83.75
2022-11-01T01:59:09.519Z,83.35
2022-11-01T02:01:41.003Z,52.10
2022-11-01T02:04:22.542Z,81.13
2022-11-01T02:06:49.927Z,124.50
2022-11-01T02:09:18.258Z,154.57
2022-11-01T02:11:45.946Z,72.45
2022-11-01T02:14:13.354Z,71.55
2022-11-01T02:17:23.740Z,65.75
2022-11-01T02:20:23.817Z,58.75
2022-11-01T02:23:42.188Z,67.10
2022-11-01T02:26:37.957Z,62.05
2022-11-01T02:29:44.803Z,53.90
2022-11-01T02:32:51.682Z,60.75
2022-11-01T02:35:58.741Z,50.05
2022-11-01T02:38:40.243Z,51.22
2022-11-01T02:41:27.077Z,50.33
2022-11-01T02:43:58.159Z,59.40
2022-11-01T02:46:46.612Z,55.60
2022-11-01T02:49:18.031Z,52.83
2022-11-01T02:51:46.486Z,49.65
2022-11-01T02:54:28.926Z,45.42
2022-11-01T02:57:14.408Z,43.72
2022-11-01T02:59:48.468Z,51.30
2022-11-01T03:02:39.759Z,45.17
2022-11-01T03:05:19.640Z,49.25
2022-11-01T03:07:54.784Z,56.47
2022-11-01T03:10:27.824Z,49.70
2022-11-01T03:13:13.693Z,50.05
2022-11-01T03:15:56.775Z,51.08
2022-11-01T03:18:33.840Z,56.97
2022-11-01T03:21:15.857Z,42.63
2022-11-01T03:24:00.805Z,53.15
2022-11-01T03:26:34.014Z,62.95
2022-11-01T03:29:08.357Z,43.20
2022-11-01T03:31:38.999Z,51.75
2022-11-01T03:34:13.783Z,53.03
2022-11-01T03:36:49.710Z,53.58
2022-11-01T03:39:27.098Z,45.33
2022-11-01T03:42:03.310Z,48.95
2022-11-01T03:44:58.761Z,48.38
2022-11-01T03:47:26.397Z,47.08
2022-11-01T03:50:13.523Z,47.95
2022-11-01T03:52:40.976Z,40.05
2022-11-01T03:55:21.238Z,45.60
2022-11-01T03:57:51.040Z,45.75
2022-11-01T04:00:23.867Z,39.87
2022-11-01T04:02:53.163Z,42.00
2022-11-01T04:05:24.312Z,44.42
2022-11-01T04:07:51.865Z,47.58
2022-11-01T04:10:20.347Z,50.60
2022-11-01T04:12:49.463Z,37.80
2022-11-01T04:15:36.983Z,38.05
2022-11-01T04:18:41.977Z,38.72
2022-11-01T04:21:19.408Z,37.63
2022-11-01T04:23:47.792Z,33.22
2022-11-01T04:26:18.444Z,39.20
2022-11-01T04:28:57.147Z,37.40
2022-11-01T04:31:28.455Z,44.45
2022-11-01T04:36:25.161Z,38.13
2022-11-01T04:38:57.296Z,35.08
2022-11-01T04:41:27.533Z,34.28
2022-11-01T04:43:58.728Z,34.15
2022-11-01T04:46:29.019Z,30.80
2022-11-01T04:48:56.638Z,36.72
2022-11-01T04:51:24.059Z,33.25
2022-11-01T04:53:51.473Z,37.00
2022-11-01T04:56:18.688Z,30.08
2022-11-01T04:58:46.715Z,30.80
2022-11-01T05:01:15.362Z,36.97
2022-11-01T05:03:43.293Z,30.52
2022-11-01T05:06:10.696Z,29.48
2022-11-01T05:08:38.126Z,29.85
2022-11-01T05:11:05.714Z,26.20
2022-11-01T05:13:33.190Z,29.88
2022-11-01T05:16:18.891Z,25.92
2022-11-01T05:18:46.839Z,33.85
2022-11-01T05:21:14.255Z,35.88
2022-11-01T05:23:41.458Z,22.85
2022-11-01T05:26:08.736Z,62.05
2022-11-01T05:28:35.995Z,111.45
2022-11-01T05:31:03.285Z,477.23
2022-11-01T05:33:30.684Z,522.40
2022-11-01T05:36:01.998Z,154.68
2022-11-01T05:38:29.280Z,116.60
2022-11-01T05:40:56.717Z,218.93
2022-11-01T05:43:23.932Z,75.43
2022-11-01T05:45:51.385Z,59.67
2022-11-01T05:48:18.753Z,83.30
2022-11-01T05:50:47.163Z,563.05
2022-11-01T05:53:14.871Z,75.35
2022-11-01T05:55:42.723Z,332.80
2022-11-01T05:58:09.949Z,77.90
2022-11-01T06:00:37.710Z,367.42
2022-11-01T06:03:05.762Z,493.05
2022-11-01T06:05:33.892Z,70.65
2022-11-01T06:08:02.436Z,210.52
2022-11-01T06:10:30.511Z,243.38
2022-11-01T06:12:58.433Z,149.25
2022-11-01T06:15:25.889Z,128.52
2022-11-01T06:17:58.406Z,275.23
2022-11-01T06:20:31.333Z,489.98
2022-11-01T06:23:00.237Z,234.82
2022-11-01T06:25:28.325Z,457.23
2022-11-01T06:27:55.628Z,323.83
2022-11-01T06:30:22.971Z,175.57
2022-11-01T06:32:50.350Z,260.70
2022-11-01T06:35:17.565Z,212.05
2022-11-01T06:37:44.825Z,83.45
2022-11-01T06:40:13.140Z,148.52
2022-11-01T06:42:45.555Z,24.83
2022-11-01T06:45:14.689Z,22.05
2022-11-01T06:47:47.723Z,15.93
2022-11-01T06:50:15.129Z,12.85
2022-11-01T06:52:42.288Z,30.15
2022-11-01T06:55:09.642Z,13.40
2022-11-01T06:57:36.882Z,14.23
2022-11-01T07:00:05.478Z,11.43
2022-11-01T07:02:32.883Z,10.30
2022-11-01T07:05:00.309Z,12.77
2022-11-01T07:07:27.559Z,12.60
2022-11-01T07:09:54.962Z,8.80
2022-11-01T07:12:22.364Z,10.07
2022-11-01T07:14:49.477Z,14.73
2022-11-01T07:17:16.734Z,9.38
2022-11-01T07:19:44.050Z,14.27
2022-11-01T07:22:11.360Z,10.00
2022-11-01T07:24:38.665Z,8.13
2022-11-01T07:27:05.893Z,8.68
2022-11-01T07:29:33.281Z,10.45
2022-11-01T07:32:01.295Z,8.73
2022-11-01T07:34:28.709Z,7.35
2022-11-01T07:36:56.032Z,9.00
2022-11-01T07:39:23.441Z,6.38
2022-11-01T07:41:52.472Z,5.85
2022-11-01T07:44:20.079Z,7.28
2022-11-01T07:46:47.298Z,8.68
2022-11-01T07:49:14.464Z,6.00
2022-11-01T07:51:41.667Z,9.73
2022-11-01T07:54:08.905Z,6.57
2022-11-01T07:56:36.258Z,6.60
2022-11-01T07:59:03.477Z,6.03
2022-11-01T08:01:30.873Z,11.65
2022-11-01T08:03:58.378Z,9.80
2022-11-01T08:06:25.649Z,7.45
2022-11-01T08:08:53.422Z,9.10
2022-11-01T08:11:20.718Z,24.95
2022-11-01T08:13:47.902Z,19.05
2022-11-01T08:16:18.412Z,10.68
2022-11-01T08:18:46.023Z,8.55
2022-11-01T08:21:18.826Z,10.35
2022-11-01T08:23:46.653Z,5.90
2022-11-01T08:26:14.272Z,9.32
2022-11-01T08:28:41.885Z,10.18
2022-11-01T08:31:10.826Z,9.90
2022-11-01T08:33:38.234Z,7.40
2022-11-01T08:36:08.089Z,10.57
2022-11-01T08:41:02.525Z,12.38
2022-11-01T08:43:29.858Z,10.80
2022-11-01T08:46:00.056Z,11.50
2022-11-01T08:48:27.359Z,19.90
2022-11-01T08:50:54.619Z,8.30
2022-11-01T08:53:22.038Z,11.25
2022-11-01T08:55:56.024Z,10.30
2022-11-01T08:58:23.422Z,11.02
2022-11-01T09:00:50.882Z,10.75
2022-11-01T09:03:18.188Z,10.95
2022-11-01T09:05:45.542Z,11.68
2022-11-01T09:08:12.841Z,9.70
2022-11-01T09:10:40.086Z,8.25
2022-11-01T09:13:07.479Z,9.15
2022-11-01T09:15:34.929Z,11.35
2022-11-01T09:18:07.255Z,12.63
2022-11-01T09:20:34.576Z,13.68
2022-11-01T09:23:01.995Z,10.48
2022-11-01T09:25:29.295Z,10.70
2022-11-01T09:27:58.083Z,10.73
2022-11-01T09:30:26.268Z,8.32
2022-11-01T09:32:53.504Z,11.77
2022-11-01T09:35:20.809Z,8.30
2022-11-01T09:37:48.084Z,12.20
2022-11-01T09:40:16.125Z,10.18
2022-11-01T09:42:45.782Z,12.77
2022-11-01T09:45:21.615Z,12.77
2022-11-01T09:47:58.435Z,11.45
2022-11-01T09:50:34.515Z,10.82
2022-11-01T09:53:07.431Z,11.32
2022-11-01T09:56:12.406Z,8.88
2022-11-01T09:59:02.567Z,9.35
2022-11-01T10:02:16.616Z,13.00
2022-11-01T10:05:27.795Z,10.35
2022-11-01T10:08:20.624Z,15.80
2022-11-01T10:10:59.409Z,13.90
2022-11-01T10:13:39.649Z,11.18
2022-11-01T10:16:22.690Z,8.90
2022-11-01T10:19:11.891Z,9.43
2022-11-01T10:21:47.927Z,12.50
2022-11-01T10:24:48.960Z,11.07
2022-11-01T10:27:50.031Z,6.43
2022-11-01T10:30:18.551Z,10.02
2022-11-01T10:33:29.729Z,7.63
2022-11-01T10:36:11.639Z,10.07
2022-11-01T10:41:47.172Z,8.32
2022-11-01T10:44:41.465Z,9.20
2022-11-01T10:47:19.534Z,8.27
2022-11-01T10:50:10.080Z,9.48
2022-11-01T10:53:11.446Z,10.40
2022-11-01T10:56:01.818Z,7.03
2022-11-01T10:58:42.770Z,9.88
2022-11-01T11:01:16.583Z,7.03
2022-11-01T11:03:46.588Z,9.38
2022-11-01T11:08:49.634Z,8.90
2022-11-01T11:11:22.508Z,10.73
2022-11-01T11:13:54.262Z,11.00
2022-11-01T11:16:48.164Z,7.50
2022-11-01T11:19:23.106Z,9.00
2022-11-01T11:21:54.050Z,6.97
2022-11-01T11:24:25.137Z,12.02
2022-11-01T11:26:56.380Z,7.63
2022-11-01T11:29:56.425Z,6.80
2022-11-01T11:32:31.941Z,8.02
2022-11-01T11:35:16.274Z,7.35
2022-11-01T11:38:07.316Z,8.05
2022-11-01T11:40:40.963Z,6.63
2022-11-01T11:43:34.216Z,13.75
2022-11-01T11:46:08.918Z,9.13
2022-11-01T11:48:50.124Z,8.18
2022-11-01T11:51:17.793Z,11.15
2022-11-01T11:54:04.446Z,9.05
2022-11-01T11:56:31.775Z,6.50
2022-11-01T11:59:08.824Z,7.75
2022-11-01T12:01:36.559Z,7.07
2022-11-01T12:04:16.468Z,7.53
2022-11-01T12:06:47.175Z,7.80
2022-11-01T12:09:46.752Z,12.95
2022-11-01T12:12:30.182Z,6.85
2022-11-01T12:14:59.071Z,6.72
2022-11-01T12:17:43.575Z,9.02
2022-11-01T12:20:21.143Z,11.38
2022-11-01T12:23:10.814Z,10.35
2022-11-01T12:25:41.366Z,10.10
2022-11-01T12:28:47.347Z,8.45
2022-11-01T12:31:22.268Z,7.63
2022-11-01T12:34:11.786Z,9.38
2022-11-01T12:37:12.698Z,11.80
2022-11-01T12:39:55.725Z,11.30
2022-11-01T12:42:30.890Z,6.88
2022-11-01T12:45:37.192Z,8.07
2022-11-01T12:48:11.919Z,10.70
2022-11-01T12:50:49.141Z,11.85
2022-11-01T12:54:06.222Z,9.45
2022-11-01T12:56:33.458Z,10.35
2022-11-01T12:59:01.098Z,9.63
2022-11-01T13:01:56.498Z,7.75
2022-11-01T13:04:31.191Z,8.45
2022-11-01T13:07:43.646Z,7.03
2022-11-01T13:10:36.553Z,9.10
2022-11-01T13:13:28.258Z,10.13
2022-11-01T13:16:28.482Z,12.20
2022-11-01T13:19:01.443Z,8.93
2022-11-01T13:21:46.997Z,12.02
2022-11-01T13:24:26.260Z,18.55
2022-11-01T13:27:31.484Z,10.07
2022-11-01T13:30:10.552Z,14.18
2022-11-01T13:33:05.243Z,11.23
2022-11-01T13:35:38.608Z,10.63
2022-11-01T13:38:29.319Z,7.55
2022-11-01T13:41:28.322Z,13.45
2022-11-01T13:44:09.466Z,8.68
2022-11-01T13:47:13.379Z,9.65
2022-11-01T13:50:28.659Z,13.07
2022-11-01T13:53:10.117Z,10.20
2022-11-01T13:55:54.733Z,11.18
2022-11-01T13:58:24.029Z,10.90
2022-11-01T14:00:55.662Z,16.83
2022-11-01T14:03:33.241Z,11.82
2022-11-01T14:06:09.595Z,15.18
2022-11-01T14:08:42.382Z,8.45
2022-11-01T14:11:34.420Z,11.55
2022-11-01T14:14:30.667Z,9.98
2022-11-01T14:17:16.647Z,11.13
2022-11-01T14:19:48.663Z,10.60
2022-11-01T14:22:33.291Z,13.75
2022-11-01T14:25:04.378Z,10.52
2022-11-01T14:27:38.073Z,12.82
2022-11-01T14:30:28.148Z,19.23
2022-11-01T14:32:59.209Z,13.80
2022-11-01T14:35:36.068Z,13.93
2022-11-01T14:38:12.949Z,9.13
2022-11-01T14:41:00.554Z,13.23
2022-11-01T14:44:11.833Z,13.20
2022-11-01T14:46:46.378Z,9.85
2022-11-01T14:49:33.574Z,12.60
2022-11-01T14:52:08.972Z,10.98
2022-11-01T14:55:03.742Z,13.52
2022-11-01T14:57:34.763Z,10.88
2022-11-01T15:00:23.081Z,15.32
2022-11-01T15:02:51.064Z,15.13
2022-11-01T15:05:18.988Z,13.73
2022-11-01T15:07:53.130Z,12.35
2022-11-01T15:10:21.197Z,13.50
2022-11-01T15:13:02.387Z,13.73
2022-11-01T15:15:37.626Z,12.85
2022-11-01T15:18:09.332Z,19.23
2022-11-01T15:20:40.950Z,14.95
2022-11-01T15:23:19.764Z,19.10
2022-11-01T15:25:56.871Z,16.67
2022-11-01T15:28:40.614Z,14.80
2022-11-01T15:31:10.060Z,10.48
2022-11-01T15:33:38.200Z,12.38
2022-11-01T15:36:23.368Z,16.58
2022-11-01T15:38:57.618Z,15.85
2022-11-01T15:41:31.776Z,13.45
2022-11-01T15:44:06.347Z,13.20
2022-11-01T15:46:43.528Z,15.52
2022-11-01T15:49:29.538Z,15.50
2022-11-01T15:52:15.228Z,17.35
2022-11-01T15:55:06.176Z,15.65
2022-11-01T15:57:44.034Z,15.30
2022-11-01T16:00:22.526Z,14.20
2022-11-01T16:03:12.778Z,15.48
2022-11-01T16:06:14.254Z,15.32
2022-11-01T16:08:49.793Z,15.32
2022-11-01T16:11:24.242Z,14.45
2022-11-01T16:14:00.647Z,15.60
2022-11-01T16:16:29.190Z,14.75
2022-11-01T16:18:56.452Z,14.25
2022-11-01T16:21:30.957Z,19.90
2022-11-01T16:24:10.117Z,33.60
2022-11-01T16:27:03.925Z,14.30
2022-11-01T16:29:51.435Z,23.20
2022-11-01T16:32:25.315Z,30.58
2022-11-01T16:34:52.724Z,31.38
2022-11-01T16:37:26.555Z,22.00
2022-11-01T16:39:54.685Z,32.15
2022-11-01T16:42:24.572Z,35.88
2022-11-01T16:44:56.524Z,32.72
2022-11-01T16:47:24.056Z,24.13
2022-11-01T16:49:55.111Z,21.80
2022-11-01T16:52:22.540Z,15.73
2022-11-01T16:54:53.598Z,20.23
2022-11-01T16:57:28.444Z,18.33
2022-11-01T16:59:56.075Z,24.85
2022-11-01T17:02:28.091Z,37.22
2022-11-01T17:05:13.725Z,34.63
2022-11-01T17:07:41.258Z,38.67
2022-11-01T17:10:22.470Z,32.22
2022-11-01T17:12:49.901Z,26.83
2022-11-01T17:15:19.476Z,21.45
2022-11-01T17:17:48.664Z,22.73
2022-11-01T17:20:26.514Z,21.23
2022-11-01T17:22:56.058Z,23.67
2022-11-01T17:25:29.155Z,18.45
2022-11-01T17:27:57.032Z,16.10
2022-11-01T17:30:24.685Z,22.95
2022-11-01T17:32:51.977Z,19.65
2022-11-01T17:35:21.555Z,24.50
2022-11-01T17:37:51.566Z,23.73
2022-11-01T17:40:22.427Z,27.98
2022-11-01T17:42:49.626Z,24.75
2022-11-01T17:45:17.360Z,21.33
2022-11-01T17:47:44.835Z,26.50
2022-11-01T17:50:15.311Z,21.83
2022-11-01T17:52:43.586Z,24.85
2022-11-01T17:55:11.902Z,22.77
2022-11-01T17:57:43.770Z,27.08
2022-11-01T18:00:11.853Z,24.17
2022-11-01T18:02:42.384Z,24.92
2022-11-01T18:05:09.890Z,27.77
2022-11-01T18:07:44.730Z,27.35
2022-11-01T18:10:42.140Z,25.50
2022-11-01T18:13:33.773Z,28.63
2022-11-01T18:16:49.450Z,27.75
2022-11-01T18:19:37.872Z,31.33
2022-11-01T18:22:14.043Z,32.25
2022-11-01T18:25:26.083Z,33.55
2022-11-01T18:27:56.447Z,28.25
2022-11-01T18:30:24.571Z,26.02
2022-11-01T18:33:20.067Z,27.08
2022-11-01T18:36:25.955Z,27.95
2022-11-01T18:39:35.320Z,27.65
2022-11-01T18:42:05.766Z,27.33
2022-11-01T18:44:33.162Z,24.42
2022-11-01T18:47:21.272Z,31.20
2022-11-01T18:49:50.374Z,26.77
2022-11-01T18:52:19.561Z,25.50
2022-11-01T18:54:56.910Z,31.27
2022-11-01T18:57:27.890Z,35.88
2022-11-01T18:59:55.153Z,34.83
2022-11-01T19:02:28.059Z,32.80
2022-11-01T19:05:22.004Z,31.83
2022-11-01T19:08:11.447Z,30.58
2022-11-01T19:10:41.647Z,30.95
2022-11-01T19:13:34.685Z,26.33
2022-11-01T19:16:02.738Z,33.72
2022-11-01T19:18:31.009Z,26.88
2022-11-01T19:20:59.774Z,27.98
2022-11-01T19:23:39.027Z,30.30
2022-11-01T19:26:32.243Z,34.38
2022-11-01T19:28:59.686Z,26.30
2022-11-01T19:31:37.219Z,32.65
2022-11-01T19:34:21.721Z,33.20
2022-11-01T19:36:49.795Z,29.02
2022-11-01T19:39:26.622Z,31.65
2022-11-01T19:42:02.371Z,25.85
2022-11-01T19:44:31.099Z,30.15
2022-11-01T19:47:34.471Z,25.95
2022-11-01T19:50:02.473Z,29.50
2022-11-01T19:52:38.073Z,27.23
2022-11-01T19:55:38.504Z,29.77
2022-11-01T19:58:44.020Z,28.45
2022-11-01T20:01:17.266Z,30.58
2022-11-01T20:03:52.447Z,31.13
2022-11-01T20:07:05.395Z,24.60
2022-11-01T20:09:41.157Z,30.42
2022-11-01T20:12:09.739Z,26.42
2022-11-01T20:14:37.470Z,26.65
2022-11-01T20:17:05.171Z,30.30
2022-11-01T20:19:33.170Z,27.75
2022-11-01T20:22:00.515Z,25.55
2022-11-01T20:24:28.122Z,30.67
2022-11-01T20:26:55.956Z,27.35
2022-11-01T20:29:23.443Z,28.73
2022-11-01T20:31:50.823Z,40.88
2022-11-01T20:34:18.294Z,54.67
2022-11-01T20:37:02.195Z,50.70
2022-11-01T20:39:32.958Z,49.60
2022-11-01T20:42:00.511Z,52.80
2022-11-01T20:44:27.917Z,44.25
2022-11-01T20:46:55.218Z,45.38
2022-11-01T20:49:22.582Z,59.90
2022-11-01T20:51:49.845Z,46.75
2022-11-01T20:54:18.304Z,44.75
2022-11-01T20:56:46.011Z,36.95
2022-11-01T20:59:15.811Z,36.92
2022-11-01T21:01:46.465Z,33.88
2022-11-01T21:04:14.381Z,35.22
2022-11-01T21:06:43.208Z,33.30
2022-11-01T21:09:43.724Z,25.83
2022-11-01T21:12:41.740Z,25.23
2022-11-01T21:15:30.057Z,20.45
2022-11-01T21:18:20.386Z,19.85
2022-11-01T21:20:49.545Z,24.35
2022-11-01T21:23:28.898Z,26.42
2022-11-01T21:26:01.223Z,27.02
2022-11-01T21:28:31.476Z,23.73
2022-11-01T21:31:32.928Z,24.10
2022-11-01T21:34:11.629Z,22.25
2022-11-01T21:36:48.132Z,25.30
2022-11-01T21:39:18.927Z,35.58
2022-11-01T21:44:26.930Z,28.77
2022-11-01T21:47:17.761Z,27.50
2022-11-01T21:49:45.145Z,27.20
2022-11-01T21:52:12.924Z,29.17
2022-11-01T21:54:42.377Z,26.08
2022-11-01T21:57:11.858Z,25.42
2022-11-01T21:59:40.276Z,24.65
2022-11-01T22:02:11.692Z,30.52
2022-11-01T22:04:39.896Z,31.55
2022-11-01T22:07:08.937Z,36.78
2022-11-01T22:09:37.934Z,32.45
2022-11-01T22:12:06.800Z,25.30
2022-11-01T22:14:34.877Z,31.48
2022-11-01T22:17:02.376Z,25.20
2022-11-01T22:19:29.693Z,28.95
2022-11-01T22:21:56.899Z,26.88
2022-11-01T22:24:24.605Z,23.38
2022-11-01T22:26:51.928Z,24.98
2022-11-01T22:29:19.118Z,26.35
2022-11-01T22:31:46.445Z,31.00
2022-11-01T22:34:13.726Z,24.17
2022-11-01T22:36:44.159Z,24.42
2022-11-01T22:39:22.691Z,26.95
2022-11-01T22:41:50.137Z,27.52
2022-11-01T22:44:25.252Z,23.27
2022-11-01T22:46:59.539Z,34.45
2022-11-01T22:49:35.245Z,36.00
2022-11-01T22:52:38.967Z,29.38
2022-11-01T22:55:12.743Z,21.45
2022-11-01T22:58:05.638Z,21.38
2022-11-01T23:00:39.893Z,19.67
2022-11-01T23:03:23.097Z,27.95
2022-11-01T23:05:57.816Z,20.63
2022-11-01T23:08:33.345Z,25.98
2022-11-01T23:11:01.795Z,18.70
2022-11-01T23:13:55.277Z,22.85
2022-11-01T23:16:27.518Z,21.27
2022-11-01T23:19:00.189Z,18.83
2022-11-01T23:21:28.427Z,22.30
2022-11-01T23:23:55.938Z,23.00
2022-11-01T23:26:23.993Z,19.25
2022-11-01T23:28:54.794Z,16.40
2022-11-01T23:31:23.612Z,17.58
2022-11-01T23:33:51.498Z,18.08
2022-11-01T23:36:18.738Z,16.98
2022-11-01T23:39:09.633Z,22.48
2022-11-01T23:44:39.132Z,21.05
2022-11-01T23:47:30.608Z,21.17
2022-11-01T23:50:12.846Z,18.77
2022-11-01T23:52:58.002Z,18.77
2022-11-01T23:55:30.174Z,16.52
2022-11-01T23:58:02.278Z,13.65
